Time;durP1;ratioP1;P1;durP2;ratioP2;P2;SDS_P1;SDS_P2;PMS_P1;PMS_P2;Temp;Humidity;BMP_temperature;BMP_pressure;BME280_temperature;BME280_humidity;BME280_pressure;Samples;Min_cycle;Max_cycle;Signal;HPM_P1;HPM_P2
2022/07/31 00:00:49;;;;;;;12.52;8.48;;;;;;;;;;5097018;28;20032;-69
2022/07/31 00:03:15;;;;;;;11.80;8.38;;;;;;;;;;5080314;28;20036;-70
2022/07/31 00:05:41;;;;;;;13.00;7.53;;;;;;;;;;5097968;27;20386;-69
2022/07/31 00:08:07;;;;;;;10.15;6.78;;;;;;;;;;5103397;27;20070;-69
2022/07/31 00:10:34;;;;;;;12.88;6.70;;;;;;;;;;5104762;27;20032;-69
2022/07/31 00:13:00;;;;;;;8.50;6.47;;;;;;;;;;5103430;27;20027;-69
2022/07/31 00:15:26;;;;;;;12.25;5.63;;;;;;;;;;5084699;28;20022;-68
2022/07/31 00:17:52;;;;;;;8.65;5.18;;;;;;;;;;5095988;27;20640;-69
2022/07/31 00:20:18;;;;;;;11.07;5.05;;;;;;;;;;5089413;27;20031;-68
2022/07/31 00:22:45;;;;;;;9.35;4.25;;;;;;;;;;5109034;27;20031;-68
2022/07/31 00:25:12;;;;;;;6.53;3.80;;;;;;;;;;5094972;27;20472;-68
2022/07/31 00:27:38;;;;;;;4.75;3.70;;;;;;;;;;5095565;27;20032;-69
2022/07/31 00:30:04;;;;;;;5.45;3.55;;;;;;;;;;5106992;27;21155;-69
2022/07/31 00:32:30;;;;;;;12.88;3.92;;;;;;;;;;5082877;27;20032;-68
2022/07/31 00:34:56;;;;;;;6.40;3.60;;;;;;;;;;5104832;27;20026;-68
2022/07/31 00:37:22;;;;;;;11.05;4.57;;;;;;;;;;5092951;27;20118;-68
2022/07/31 00:39:48;;;;;;;9.13;4.60;;;;;;;;;;5098361;28;20531;-69
2022/07/31 00:42:18;;;;;;;10.98;4.47;;;;;;;;;;5103807;27;20040;-69
2022/07/31 00:44:44;;;;;;;10.93;4.50;;;;;;;;;;5102597;27;20064;-68
2022/07/31 00:47:10;;;;;;;10.23;4.47;;;;;;;;;;5077453;28;20415;-68
2022/07/31 00:49:36;;;;;;;5.88;4.05;;;;;;;;;;5102070;28;20111;-69
2022/07/31 00:52:03;;;;;;;9.35;4.40;;;;;;;;;;5111304;27;20024;-68
2022/07/31 00:54:29;;;;;;;5.90;4.28;;;;;;;;;;5101320;27;20476;-68
2022/07/31 00:56:55;;;;;;;7.35;4.18;;;;;;;;;;5076948;28;20023;-69
2022/07/31 00:59:21;;;;;;;6.07;3.97;;;;;;;;;;5099373;27;20453;-69
2022/07/31 01:01:47;;;;;;;8.05;3.95;;;;;;;;;;5103485;28;20111;-68
2022/07/31 01:04:17;;;;;;;9.95;4.82;;;;;;;;;;5099336;28;20039;-67
2022/07/31 01:06:43;;;;;;;11.45;4.75;;;;;;;;;;5099794;27;20046;-68
2022/07/31 01:09:09;;;;;;;6.88;4.20;;;;;;;;;;5085544;28;20043;-69
2022/07/31 01:11:57;;;;;;;7.47;4.20;;;;;;;;;;5104203;27;20024;-69
2022/07/31 01:14:25;;;;;;;8.93;4.00;;;;;;;;;;5102604;28;20016;-68
2022/07/31 01:16:52;;;;;;;11.07;4.72;;;;;;;;;;5079968;28;20503;-68
2022/07/31 01:19:21;;;;;;;7.35;4.22;;;;;;;;;;5098512;28;20028;-68
2022/07/31 01:21:56;;;;;;;9.43;4.45;;;;;;;;;;5104613;28;20027;-68
2022/07/31 01:24:22;;;;;;;9.48;4.88;;;;;;;;;;5103646;28;20042;-68
2022/07/31 01:26:51;;;;;;;14.48;5.18;;;;;;;;;;5098163;28;20028;-68
2022/07/31 01:29:24;;;;;;;11.25;5.80;;;;;;;;;;5098309;28;20084;-69
2022/07/31 01:31:59;;;;;;;11.18;5.20;;;;;;;;;;5101322;28;20143;-68
2022/07/31 01:34:28;;;;;;;12.10;5.05;;;;;;;;;;5098912;28;20353;-68
2022/07/31 01:36:57;;;;;;;9.52;5.32;;;;;;;;;;5094087;28;20044;-69
2022/07/31 01:39:24;;;;;;;10.27;5.43;;;;;;;;;;5096998;28;20019;-69
2022/07/31 01:41:50;;;;;;;10.95;5.20;;;;;;;;;;5098727;28;20040;-69
2022/07/31 01:44:17;;;;;;;14.13;5.50;;;;;;;;;;5098100;28;20042;-69
2022/07/31 01:46:44;;;;;;;10.60;5.97;;;;;;;;;;5096916;28;20050;-69
2022/07/31 01:49:11;;;;;;;12.05;6.03;;;;;;;;;;5096473;28;20039;-69
2022/07/31 01:51:37;;;;;;;11.43;5.70;;;;;;;;;;5095907;28;20039;-69
2022/07/31 01:54:04;;;;;;;9.88;5.38;;;;;;;;;;5095176;28;20055;-69
2022/07/31 01:56:31;;;;;;;10.10;6.05;;;;;;;;;;5095122;28;20040;-69
2022/07/31 01:58:59;;;;;;;10.30;5.82;;;;;;;;;;5102191;28;20023;-68
2022/07/31 02:01:25;;;;;;;13.63;6.20;;;;;;;;;;5097104;28;20047;-68
2022/07/31 02:03:52;;;;;;;13.43;6.30;;;;;;;;;;5098939;27;20016;-69
2022/07/31 02:06:19;;;;;;;12.50;6.50;;;;;;;;;;5099641;27;20489;-69
2022/07/31 02:08:47;;;;;;;12.82;6.60;;;;;;;;;;5101624;27;20031;-69
2022/07/31 02:11:14;;;;;;;13.90;7.55;;;;;;;;;;5104485;27;20486;-69
2022/07/31 02:13:40;;;;;;;16.02;8.45;;;;;;;;;;5107172;27;20476;-69
2022/07/31 02:16:06;;;;;;;17.70;9.00;;;;;;;;;;5097340;28;20162;-69
2022/07/31 02:18:33;;;;;;;14.40;10.05;;;;;;;;;;5103569;27;20027;-70
2022/07/31 02:20:59;;;;;;;16.40;9.32;;;;;;;;;;5100663;27;20054;-67
2022/07/31 02:23:25;;;;;;;15.73;8.98;;;;;;;;;;5089223;27;20057;-69
2022/07/31 02:25:51;;;;;;;18.85;9.13;;;;;;;;;;5100449;27;20039;-69
2022/07/31 02:28:19;;;;;;;14.00;9.13;;;;;;;;;;5079171;28;20040;-69
2022/07/31 02:30:47;;;;;;;19.02;10.82;;;;;;;;;;5086780;27;20024;-69
2022/07/31 02:33:16;;;;;;;20.15;12.63;;;;;;;;;;5102140;27;20031;-68
2022/07/31 02:35:44;;;;;;;18.80;12.77;;;;;;;;;;5104416;27;20016;-68
2022/07/31 02:38:10;;;;;;;18.25;12.05;;;;;;;;;;5104585;27;20089;-69
2022/07/31 02:40:37;;;;;;;17.42;12.00;;;;;;;;;;5081362;27;20453;-68
2022/07/31 02:43:03;;;;;;;14.57;11.50;;;;;;;;;;5086353;28;20446;-69
2022/07/31 02:45:29;;;;;;;16.10;11.77;;;;;;;;;;5108533;27;20043;-69
2022/07/31 02:47:56;;;;;;;18.48;13.07;;;;;;;;;;5108512;27;20796;-68
2022/07/31 02:50:22;;;;;;;17.83;11.93;;;;;;;;;;5106988;27;20023;-69
2022/07/31 02:52:48;;;;;;;15.85;12.65;;;;;;;;;;5103235;27;20490;-70
2022/07/31 02:55:15;;;;;;;17.63;13.07;;;;;;;;;;5068416;27;20043;-69
2022/07/31 02:57:41;;;;;;;17.65;13.05;;;;;;;;;;5098650;27;20076;-68
2022/07/31 03:00:25;;;;;;;19.25;12.90;;;;;;;;;;5103773;27;20063;-69
2022/07/31 03:02:52;;;;;;;17.45;13.10;;;;;;;;;;5104207;27;20020;-69
2022/07/31 03:05:18;;;;;;;20.23;12.65;;;;;;;;;;5101664;27;20107;-69
2022/07/31 03:07:44;;;;;;;24.48;13.40;;;;;;;;;;5096622;28;20042;-69
2022/07/31 03:10:11;;;;;;;18.65;13.18;;;;;;;;;;5096878;27;20124;-69
2022/07/31 03:12:39;;;;;;;18.52;12.55;;;;;;;;;;5097108;27;20111;-69
2022/07/31 03:15:08;;;;;;;19.67;13.02;;;;;;;;;;5106182;27;20055;-68
2022/07/31 03:17:35;;;;;;;17.80;13.02;;;;;;;;;;5102458;27;20036;-68
2022/07/31 03:20:01;;;;;;;21.40;13.20;;;;;;;;;;5082467;28;20031;-68
2022/07/31 03:22:27;;;;;;;14.45;12.15;;;;;;;;;;5100761;27;20043;-67
2022/07/31 03:24:54;;;;;;;17.73;12.48;;;;;;;;;;5096537;27;20042;-68
2022/07/31 03:27:20;;;;;;;20.23;12.70;;;;;;;;;;5099027;27;20390;-68
2022/07/31 03:29:46;;;;;;;17.80;12.88;;;;;;;;;;5099596;27;20058;-68
2022/07/31 03:32:13;;;;;;;16.92;12.50;;;;;;;;;;5101169;27;20032;-68
2022/07/31 03:34:39;;;;;;;18.20;13.63;;;;;;;;;;5104605;27;20069;-69
2022/07/31 03:37:05;;;;;;;19.95;14.15;;;;;;;;;;5088976;27;20035;-69
2022/07/31 03:39:31;;;;;;;21.73;13.85;;;;;;;;;;5098604;28;20027;-69
2022/07/31 03:41:58;;;;;;;22.30;13.18;;;;;;;;;;5097693;27;20035;-68
2022/07/31 03:44:25;;;;;;;24.38;12.82;;;;;;;;;;5103843;27;20042;-67
2022/07/31 03:46:51;;;;;;;23.17;14.00;;;;;;;;;;5105300;27;20139;-68
2022/07/31 03:49:18;;;;;;;26.40;14.00;;;;;;;;;;5104874;28;20034;-68
2022/07/31 03:51:44;;;;;;;21.42;13.50;;;;;;;;;;5099724;27;20046;-68
2022/07/31 03:54:10;;;;;;;20.55;12.68;;;;;;;;;;5106587;27;20027;-69
2022/07/31 03:56:37;;;;;;;31.38;13.93;;;;;;;;;;5103709;27;20031;-68
2022/07/31 03:59:03;;;;;;;22.13;13.90;;;;;;;;;;5098851;27;20138;-69
2022/07/31 04:01:30;;;;;;;25.60;13.82;;;;;;;;;;5094153;27;20019;-69
2022/07/31 04:03:59;;;;;;;22.42;13.05;;;;;;;;;;5097951;28;20078;-69
2022/07/31 04:06:25;;;;;;;25.60;14.70;;;;;;;;;;5098638;27;20066;-69
2022/07/31 04:08:51;;;;;;;24.02;14.95;;;;;;;;;;5096654;27;20369;-68
2022/07/31 04:11:17;;;;;;;22.90;13.57;;;;;;;;;;5081498;27;20060;-69
2022/07/31 04:13:43;;;;;;;22.05;12.80;;;;;;;;;;5100929;27;20496;-69
2022/07/31 04:16:09;;;;;;;15.05;12.38;;;;;;;;;;5108870;27;20032;-69
2022/07/31 04:18:35;;;;;;;17.83;11.38;;;;;;;;;;5102662;28;20031;-68
2022/07/31 04:21:01;;;;;;;23.08;11.70;;;;;;;;;;5109863;27;20550;-68
2022/07/31 04:23:27;;;;;;;21.73;11.80;;;;;;;;;;5074923;27;20046;-69
2022/07/31 04:25:53;;;;;;;21.88;11.95;;;;;;;;;;5104151;27;20028;-69
2022/07/31 04:28:19;;;;;;;25.75;13.75;;;;;;;;;;5089701;27;20148;-69
2022/07/31 04:30:45;;;;;;;14.35;11.73;;;;;;;;;;5099403;27;20537;-69
2022/07/31 04:33:11;;;;;;;19.23;12.40;;;;;;;;;;5076543;27;20111;-70
2022/07/31 04:35:37;;;;;;;25.08;12.00;;;;;;;;;;5084080;27;20460;-69
2022/07/31 04:38:03;;;;;;;19.58;10.98;;;;;;;;;;5075176;28;20028;-69
2022/07/31 04:40:29;;;;;;;15.27;10.63;;;;;;;;;;5108313;27;20016;-68
2022/07/31 04:42:55;;;;;;;14.63;10.07;;;;;;;;;;5098914;27;20150;-68
2022/07/31 04:45:21;;;;;;;13.18;9.40;;;;;;;;;;5104136;28;20089;-69
2022/07/31 04:47:47;;;;;;;16.48;10.43;;;;;;;;;;5094056;27;20040;-68
2022/07/31 04:50:13;;;;;;;18.98;10.65;;;;;;;;;;5098327;28;20546;-68
2022/07/31 04:52:39;;;;;;;19.85;10.90;;;;;;;;;;5093609;27;20060;-68
2022/07/31 04:55:05;;;;;;;16.50;10.32;;;;;;;;;;5089329;28;20118;-68
2022/07/31 04:57:32;;;;;;;11.98;9.63;;;;;;;;;;5100366;27;20503;-68
2022/07/31 04:59:58;;;;;;;16.17;10.05;;;;;;;;;;5102873;27;20446;-68
2022/07/31 05:02:24;;;;;;;12.68;9.88;;;;;;;;;;5076789;28;20409;-68
2022/07/31 05:04:50;;;;;;;12.63;9.82;;;;;;;;;;5102290;27;20032;-68
2022/07/31 05:07:16;;;;;;;16.05;10.38;;;;;;;;;;5093481;27;20027;-68
2022/07/31 05:09:42;;;;;;;14.35;10.45;;;;;;;;;;5077205;28;20028;-68
2022/07/31 05:12:08;;;;;;;16.90;10.23;;;;;;;;;;5096554;28;20032;-68
2022/07/31 05:14:34;;;;;;;17.80;10.60;;;;;;;;;;5106213;27;20028;-68
2022/07/31 05:17:00;;;;;;;16.15;10.30;;;;;;;;;;5099303;28;20055;-69
2022/07/31 05:19:28;;;;;;;14.85;10.45;;;;;;;;;;5101615;28;20425;-67
2022/07/31 05:21:56;;;;;;;15.73;10.27;;;;;;;;;;5098815;27;20103;-68
2022/07/31 05:24:22;;;;;;;15.23;10.35;;;;;;;;;;5098807;28;20016;-68
2022/07/31 05:26:48;;;;;;;17.33;10.55;;;;;;;;;;5098332;27;20047;-69
2022/07/31 05:29:14;;;;;;;18.13;11.02;;;;;;;;;;5097558;28;20031;-68
2022/07/31 05:31:40;;;;;;;14.27;10.70;;;;;;;;;;5099210;28;20020;-69
2022/07/31 05:34:06;;;;;;;16.58;10.88;;;;;;;;;;5104634;28;20430;-68
2022/07/31 05:36:32;;;;;;;21.83;11.27;;;;;;;;;;5100149;28;20540;-69
2022/07/31 05:38:58;;;;;;;18.00;11.85;;;;;;;;;;5097033;28;20030;-69
2022/07/31 05:41:24;;;;;;;16.05;11.25;;;;;;;;;;5106333;27;20074;-70
2022/07/31 05:43:50;;;;;;;21.88;11.88;;;;;;;;;;5088755;28;20047;-70
2022/07/31 05:46:16;;;;;;;18.08;12.15;;;;;;;;;;5102654;27;20484;-70
2022/07/31 05:48:45;;;;;;;16.67;11.82;;;;;;;;;;5100387;27;20127;-69
2022/07/31 05:51:12;;;;;;;16.38;11.65;;;;;;;;;;5095244;27;20032;-69
2022/07/31 05:53:38;;;;;;;20.05;12.32;;;;;;;;;;5102385;27;20064;-69
2022/07/31 05:56:05;;;;;;;21.70;13.00;;;;;;;;;;5083844;28;20160;-69
2022/07/31 05:58:31;;;;;;;24.92;14.85;;;;;;;;;;5095182;27;20032;-70
2022/07/31 06:00:57;;;;;;;21.08;14.80;;;;;;;;;;5101043;27;20119;-69
2022/07/31 06:03:26;;;;;;;23.67;14.68;;;;;;;;;;5097656;27;20069;-70
2022/07/31 06:05:52;;;;;;;22.83;14.80;;;;;;;;;;5107599;28;20039;-69
2022/07/31 06:08:19;;;;;;;26.85;16.25;;;;;;;;;;5104718;27;20158;-68
2022/07/31 06:10:45;;;;;;;31.00;16.55;;;;;;;;;;5108114;27;20628;-68
2022/07/31 06:13:11;;;;;;;26.85;17.42;;;;;;;;;;5102995;27;20485;-70
2022/07/31 06:15:37;;;;;;;30.83;16.63;;;;;;;;;;5100938;28;20126;-69
2022/07/31 06:18:04;;;;;;;25.63;16.02;;;;;;;;;;5084223;27;20523;-69
2022/07/31 06:20:30;;;;;;;29.45;16.75;;;;;;;;;;5101510;27;20135;-69
2022/07/31 06:22:56;;;;;;;30.50;15.93;;;;;;;;;;5099846;27;20031;-69
2022/07/31 06:25:22;;;;;;;27.35;17.55;;;;;;;;;;5098417;27;20027;-69
2022/07/31 06:27:48;;;;;;;28.08;17.10;;;;;;;;;;5101972;28;20227;-69
2022/07/31 06:30:14;;;;;;;28.08;17.10;;;;;;;;;;5102943;27;20134;-69
2022/07/31 06:32:41;;;;;;;30.80;18.90;;;;;;;;;;5100623;27;20077;-69
2022/07/31 06:35:07;;;;;;;29.50;18.73;;;;;;;;;;5109121;27;20108;-68
2022/07/31 06:37:33;;;;;;;30.55;18.70;;;;;;;;;;5105288;27;20040;-67
2022/07/31 06:39:59;;;;;;;31.38;19.75;;;;;;;;;;5104406;27;20111;-68
2022/07/31 06:42:26;;;;;;;35.95;20.77;;;;;;;;;;5085275;28;20035;-69
2022/07/31 06:44:52;;;;;;;36.75;20.65;;;;;;;;;;5104520;27;20389;-69
2022/07/31 06:47:22;;;;;;;35.80;20.92;;;;;;;;;;5100589;27;20023;-68
2022/07/31 06:49:49;;;;;;;36.70;19.95;;;;;;;;;;5098529;27;20074;-69
2022/07/31 06:52:15;;;;;;;32.85;20.15;;;;;;;;;;5100734;27;20027;-69
2022/07/31 06:54:42;;;;;;;33.55;19.70;;;;;;;;;;5109703;27;20019;-69
2022/07/31 06:57:08;;;;;;;35.13;20.27;;;;;;;;;;5099238;27;20503;-70
2022/07/31 06:59:34;;;;;;;39.65;20.88;;;;;;;;;;5099965;28;20062;-70
2022/07/31 07:02:00;;;;;;;36.28;20.92;;;;;;;;;;5098956;28;20059;-69
2022/07/31 07:04:27;;;;;;;38.10;21.58;;;;;;;;;;5110326;27;20032;-70
2022/07/31 07:06:53;;;;;;;41.72;22.92;;;;;;;;;;5098889;27;20020;-68
2022/07/31 07:09:19;;;;;;;34.15;21.35;;;;;;;;;;5099970;27;20059;-70
2022/07/31 07:11:46;;;;;;;40.85;22.48;;;;;;;;;;5098750;27;20507;-69
2022/07/31 07:14:12;;;;;;;37.95;22.98;;;;;;;;;;5083396;28;20019;-69
2022/07/31 07:16:38;;;;;;;38.35;24.30;;;;;;;;;;5101588;27;20080;-70
2022/07/31 07:19:04;;;;;;;44.30;26.70;;;;;;;;;;5103748;27;20036;-69
2022/07/31 07:31:07;;;;;;;47.45;24.42;;;;;;;;;;5059936;22;20065;-70
2022/07/31 07:33:33;;;;;;;43.70;23.70;;;;;;;;;;5020405;28;20554;-70
2022/07/31 07:35:59;;;;;;;48.33;25.88;;;;;;;;;;5025266;28;20161;-70
2022/07/31 07:38:25;;;;;;;43.58;24.25;;;;;;;;;;5017176;28;20108;-71
2022/07/31 07:40:51;;;;;;;41.38;24.65;;;;;;;;;;5090013;28;20491;-71
2022/07/31 07:43:18;;;;;;;44.85;25.40;;;;;;;;;;5041445;28;20086;-70
2022/07/31 07:45:44;;;;;;;46.67;25.52;;;;;;;;;;5012917;28;20378;-70
2022/07/31 07:48:10;;;;;;;42.85;26.73;;;;;;;;;;5092591;28;20038;-71
2022/07/31 07:50:36;;;;;;;46.17;26.58;;;;;;;;;;5014352;28;20036;-70
2022/07/31 07:53:02;;;;;;;47.65;28.17;;;;;;;;;;5018969;28;20044;-69
2022/07/31 07:55:28;;;;;;;46.00;27.55;;;;;;;;;;5079308;28;20027;-70
2022/07/31 07:57:54;;;;;;;49.00;28.73;;;;;;;;;;5033522;28;20029;-70
2022/07/31 08:00:20;;;;;;;50.40;27.42;;;;;;;;;;5018250;28;20113;-70
2022/07/31 08:02:47;;;;;;;52.75;29.23;;;;;;;;;;5026627;28;20061;-70
2022/07/31 08:05:14;;;;;;;52.22;30.15;;;;;;;;;;5024548;28;20081;-70
2022/07/31 08:07:40;;;;;;;58.60;31.00;;;;;;;;;;5017639;28;20026;-70
2022/07/31 08:10:06;;;;;;;62.95;33.15;;;;;;;;;;5013709;28;20554;-71
2022/07/31 08:12:33;;;;;;;66.40;34.65;;;;;;;;;;5026250;28;20013;-71
2022/07/31 08:14:59;;;;;;;64.15;33.85;;;;;;;;;;5012356;28;20025;-70
2022/07/31 08:17:25;;;;;;;66.25;34.78;;;;;;;;;;5016313;28;20441;-70
2022/07/31 08:19:51;;;;;;;74.50;37.42;;;;;;;;;;5017131;28;20048;-69
2022/07/31 08:22:18;;;;;;;78.07;39.17;;;;;;;;;;5014081;28;20145;-68
2022/07/31 08:24:44;;;;;;;85.50;40.38;;;;;;;;;;5075842;28;20042;-68
2022/07/31 08:27:25;;;;;;;79.75;37.80;;;;;;;;;;5018922;28;20032;-70
2022/07/31 08:29:52;;;;;;;82.25;40.60;;;;;;;;;;5023012;28;20040;-67
2022/07/31 08:32:18;;;;;;;75.68;38.78;;;;;;;;;;5024104;28;20120;-68
2022/07/31 08:34:44;;;;;;;81.72;40.72;;;;;;;;;;5026170;28;20029;-68
2022/07/31 08:37:12;;;;;;;81.80;40.05;;;;;;;;;;5026944;28;20077;-67
2022/07/31 08:39:38;;;;;;;80.32;41.17;;;;;;;;;;5025081;28;20533;-68
2022/07/31 08:42:08;;;;;;;70.85;38.30;;;;;;;;;;5094603;28;20088;-69
2022/07/31 08:44:37;;;;;;;65.90;37.83;;;;;;;;;;5027587;28;20033;-69
2022/07/31 08:47:06;;;;;;;66.72;38.15;;;;;;;;;;5027442;28;20077;-68
2022/07/31 08:49:34;;;;;;;67.20;36.35;;;;;;;;;;5024676;28;20034;-69
2022/07/31 08:52:01;;;;;;;59.75;33.22;;;;;;;;;;5027665;28;20050;-69
2022/07/31 08:54:28;;;;;;;53.13;33.65;;;;;;;;;;5075182;28;20032;-69
2022/07/31 08:56:54;;;;;;;64.60;35.20;;;;;;;;;;5044383;28;20331;-67
2022/07/31 08:59:21;;;;;;;58.17;33.45;;;;;;;;;;5089169;28;20036;-68
2022/07/31 09:01:47;;;;;;;57.33;34.33;;;;;;;;;;5107449;28;20087;-69
2022/07/31 09:04:13;;;;;;;57.92;33.33;;;;;;;;;;5098817;28;20508;-68
2022/07/31 09:06:40;;;;;;;58.70;34.35;;;;;;;;;;5026532;28;20029;-69
2022/07/31 09:09:06;;;;;;;54.47;33.15;;;;;;;;;;5093050;28;20032;-68
2022/07/31 09:11:33;;;;;;;47.58;32.53;;;;;;;;;;5027430;28;20018;-68
2022/07/31 09:14:00;;;;;;;47.42;32.40;;;;;;;;;;5027046;28;20022;-68
2022/07/31 09:16:27;;;;;;;50.58;33.45;;;;;;;;;;5076761;28;20085;-69
2022/07/31 09:19:04;;;;;;;50.25;32.65;;;;;;;;;;5036824;28;20086;-68
2022/07/31 09:21:43;;;;;;;48.13;32.75;;;;;;;;;;5027392;28;20401;-70
2022/07/31 09:24:10;;;;;;;53.17;34.92;;;;;;;;;;5024845;28;20037;-69
2022/07/31 09:26:39;;;;;;;54.08;33.63;;;;;;;;;;5017868;28;20475;-69
2022/07/31 09:29:07;;;;;;;49.67;32.58;;;;;;;;;;5046137;28;20020;-69
2022/07/31 09:31:36;;;;;;;53.88;34.22;;;;;;;;;;5012720;28;20049;-69
2022/07/31 09:34:03;;;;;;;52.88;34.58;;;;;;;;;;5006861;28;20038;-69
2022/07/31 09:36:29;;;;;;;55.30;35.97;;;;;;;;;;5015449;28;20029;-70
2022/07/31 09:38:55;;;;;;;57.40;37.00;;;;;;;;;;5026520;28;20478;-69
2022/07/31 09:41:22;;;;;;;47.95;34.30;;;;;;;;;;5027380;28;20057;-69
2022/07/31 09:44:01;;;;;;;50.97;33.25;;;;;;;;;;5027590;28;20478;-69
2022/07/31 09:46:48;;;;;;;52.40;34.25;;;;;;;;;;5026880;28;20048;-69
2022/07/31 09:49:14;;;;;;;44.63;32.42;;;;;;;;;;5025178;28;20064;-68
2022/07/31 09:51:45;;;;;;;52.80;33.13;;;;;;;;;;5027078;28;20030;-70
2022/07/31 09:54:25;;;;;;;46.03;32.17;;;;;;;;;;5027383;28;20062;-70
2022/07/31 09:56:51;;;;;;;42.05;30.15;;;;;;;;;;5025068;28;20021;-70
2022/07/31 09:59:17;;;;;;;42.88;32.03;;;;;;;;;;5056620;28;20028;-68
2022/07/31 10:01:45;;;;;;;40.65;30.30;;;;;;;;;;5031766;28;20101;-69
2022/07/31 10:04:12;;;;;;;40.10;30.48;;;;;;;;;;5026591;28;20033;-68
2022/07/31 10:06:39;;;;;;;41.78;30.92;;;;;;;;;;5016623;28;20026;-68
2022/07/31 10:09:05;;;;;;;41.92;30.55;;;;;;;;;;5018096;28;20100;-68
2022/07/31 10:11:32;;;;;;;42.97;29.92;;;;;;;;;;5063733;28;20088;-69
2022/07/31 10:14:00;;;;;;;44.67;32.35;;;;;;;;;;5094066;28;20027;-68
2022/07/31 10:16:27;;;;;;;41.85;32.50;;;;;;;;;;5021106;28;20061;-69
2022/07/31 10:18:56;;;;;;;44.53;33.35;;;;;;;;;;5026822;28;20375;-68
2022/07/31 10:21:23;;;;;;;48.78;33.70;;;;;;;;;;5027075;28;20026;-69
2022/07/31 10:23:49;;;;;;;42.90;34.28;;;;;;;;;;5026845;28;20064;-69
2022/07/31 10:26:16;;;;;;;46.60;34.95;;;;;;;;;;5072263;28;20381;-69
2022/07/31 10:28:42;;;;;;;49.05;34.65;;;;;;;;;;5036409;28;20034;-69
2022/07/31 10:31:11;;;;;;;46.47;35.35;;;;;;;;;;5029831;28;20129;-69
2022/07/31 10:33:37;;;;;;;50.83;35.15;;;;;;;;;;5030003;28;20442;-69
2022/07/31 10:36:05;;;;;;;44.67;34.90;;;;;;;;;;5096588;28;20059;-69
2022/07/31 10:38:39;;;;;;;48.78;34.17;;;;;;;;;;5028012;28;20033;-69
2022/07/31 10:41:30;;;;;;;45.33;34.45;;;;;;;;;;5018321;28;20040;-69
2022/07/31 10:43:59;;;;;;;45.10;34.47;;;;;;;;;;5010119;28;20037;-69
2022/07/31 10:46:26;;;;;;;45.05;34.33;;;;;;;;;;5060599;28;20072;-69
2022/07/31 10:48:52;;;;;;;44.28;33.45;;;;;;;;;;5024271;28;20667;-69
2022/07/31 10:51:21;;;;;;;48.60;33.13;;;;;;;;;;5014652;28;20101;-68
2022/07/31 10:53:57;;;;;;;41.95;33.58;;;;;;;;;;5079846;28;20051;-69
2022/07/31 10:56:24;;;;;;;45.58;34.13;;;;;;;;;;5021610;28;20074;-69
2022/07/31 10:58:51;;;;;;;40.42;32.20;;;;;;;;;;5019853;28;20041;-69
2022/07/31 11:01:17;;;;;;;40.50;32.30;;;;;;;;;;5019646;28;20060;-69
2022/07/31 11:03:48;;;;;;;39.80;30.13;;;;;;;;;;5022572;28;20063;-69
2022/07/31 11:06:15;;;;;;;36.78;30.67;;;;;;;;;;5064860;28;20036;-69
2022/07/31 11:08:51;;;;;;;33.75;28.90;;;;;;;;;;5042863;28;20079;-70
2022/07/31 11:11:17;;;;;;;36.25;28.48;;;;;;;;;;5060705;28;20034;-70
2022/07/31 11:13:49;;;;;;;38.28;30.38;;;;;;;;;;5099648;28;20115;-69
2022/07/31 11:16:16;;;;;;;34.10;28.33;;;;;;;;;;5013304;28;20030;-70
2022/07/31 11:18:44;;;;;;;39.85;29.70;;;;;;;;;;5018436;28;20110;-70
2022/07/31 11:21:10;;;;;;;34.45;29.60;;;;;;;;;;5021353;28;20070;-70
2022/07/31 11:23:36;;;;;;;38.67;30.35;;;;;;;;;;5032786;28;20025;-70
2022/07/31 11:26:06;;;;;;;39.95;30.70;;;;;;;;;;5020976;28;20539;-70
2022/07/31 11:28:33;;;;;;;36.87;30.13;;;;;;;;;;5024756;28;20025;-70
2022/07/31 11:31:06;;;;;;;43.33;32.92;;;;;;;;;;5014803;28;20300;-70
2022/07/31 11:33:42;;;;;;;41.22;31.83;;;;;;;;;;5023325;28;20094;-70
2022/07/31 11:36:16;;;;;;;36.72;28.63;;;;;;;;;;5087847;28;20410;-70
2022/07/31 11:38:43;;;;;;;47.70;28.33;;;;;;;;;;5022942;28;20021;-72
2022/07/31 11:41:09;;;;;;;45.58;30.00;;;;;;;;;;5017799;28;20101;-70
2022/07/31 11:43:39;;;;;;;40.42;26.40;;;;;;;;;;5020240;28;20396;-70
2022/07/31 11:46:05;;;;;;;41.88;27.20;;;;;;;;;;5021793;28;20470;-70
2022/07/31 11:48:31;;;;;;;40.13;27.30;;;;;;;;;;5014294;28;20037;-71
2022/07/31 11:50:58;;;;;;;39.75;26.67;;;;;;;;;;5018954;28;20033;-71
2022/07/31 11:53:24;;;;;;;37.75;23.55;;;;;;;;;;5063335;28;20493;-70
2022/07/31 11:55:58;;;;;;;33.00;23.63;;;;;;;;;;5028222;28;20033;-70
2022/07/31 11:58:25;;;;;;;30.83;21.20;;;;;;;;;;5018523;28;20026;-70
2022/07/31 12:00:58;;;;;;;26.92;19.83;;;;;;;;;;5020408;28;20033;-69
2022/07/31 12:03:28;;;;;;;27.30;18.88;;;;;;;;;;5015266;28;20026;-69
2022/07/31 12:05:54;;;;;;;22.77;18.65;;;;;;;;;;5013416;28;20112;-69
2022/07/31 12:08:21;;;;;;;31.23;18.85;;;;;;;;;;5020641;28;20026;-69
2022/07/31 12:10:47;;;;;;;30.35;17.35;;;;;;;;;;5021605;28;20185;-70
2022/07/31 12:13:18;;;;;;;26.63;17.15;;;;;;;;;;5057124;28;20385;-70
2022/07/31 12:16:00;;;;;;;29.00;16.30;;;;;;;;;;5036603;28;20025;-70
2022/07/31 12:18:27;;;;;;;20.75;13.77;;;;;;;;;;5014930;28;20037;-70
2022/07/31 12:21:00;;;;;;;22.30;13.57;;;;;;;;;;5018583;28;20022;-71
2022/07/31 12:23:27;;;;;;;18.40;13.02;;;;;;;;;;5020433;28;20055;-70
2022/07/31 12:25:53;;;;;;;19.48;13.60;;;;;;;;;;5082285;28;20405;-71
2022/07/31 12:28:20;;;;;;;18.67;11.77;;;;;;;;;;5016711;28;20072;-72
2022/07/31 12:30:57;;;;;;;17.67;11.40;;;;;;;;;;5015849;28;20101;-72
2022/07/31 12:33:23;;;;;;;19.58;13.13;;;;;;;;;;5018042;28;20105;-71
2022/07/31 12:35:49;;;;;;;15.00;11.82;;;;;;;;;;5083725;28;20147;-72
2022/07/31 12:38:22;;;;;;;16.95;11.75;;;;;;;;;;5015755;28;20550;-71
2022/07/31 12:40:48;;;;;;;20.15;10.93;;;;;;;;;;5013792;28;20030;-71
2022/07/31 12:43:14;;;;;;;17.02;11.45;;;;;;;;;;5018339;28;20098;-71
2022/07/31 12:45:40;;;;;;;16.30;11.05;;;;;;;;;;5079178;28;20032;-71
2022/07/31 12:48:07;;;;;;;18.85;11.30;;;;;;;;;;5084784;28;20504;-72
2022/07/31 12:50:33;;;;;;;16.52;9.88;;;;;;;;;;5071689;28;20587;-69
2022/07/31 12:53:03;;;;;;;24.63;10.00;;;;;;;;;;5021830;28;20065;-69
2022/07/31 12:55:31;;;;;;;22.95;10.05;;;;;;;;;;5064348;28;20031;-69
2022/07/31 12:57:57;;;;;;;21.50;10.35;;;;;;;;;;5028072;28;20032;-69
2022/07/31 13:00:23;;;;;;;15.32;8.90;;;;;;;;;;5068463;28;20035;-69
2022/07/31 13:02:53;;;;;;;16.30;8.77;;;;;;;;;;5033886;28;20029;-69
2022/07/31 13:05:20;;;;;;;15.23;8.43;;;;;;;;;;5061567;28;20119;-68
2022/07/31 13:07:47;;;;;;;17.00;8.98;;;;;;;;;;5032887;28;20086;-69
2022/07/31 13:10:13;;;;;;;14.98;8.45;;;;;;;;;;5035940;28;20016;-68
2022/07/31 13:12:39;;;;;;;15.95;8.07;;;;;;;;;;5037219;28;20033;-69
2022/07/31 13:15:05;;;;;;;13.95;8.35;;;;;;;;;;5018715;28;20066;-69
2022/07/31 13:17:31;;;;;;;16.25;8.05;;;;;;;;;;5019481;28;20033;-69
2022/07/31 13:19:58;;;;;;;13.88;7.95;;;;;;;;;;5019911;28;20083;-68
2022/07/31 13:22:24;;;;;;;14.93;6.70;;;;;;;;;;5063778;28;20035;-70
2022/07/31 13:24:50;;;;;;;14.35;7.35;;;;;;;;;;5026463;28;20045;-70
2022/07/31 13:27:17;;;;;;;16.02;7.32;;;;;;;;;;5059415;28;20038;-70
2022/07/31 13:29:43;;;;;;;14.93;6.93;;;;;;;;;;5033395;28;20044;-71
2022/07/31 13:32:09;;;;;;;16.63;7.53;;;;;;;;;;5015055;28;20041;-69
2022/07/31 13:43:24;;;;;;;18.02;7.13;;;;;;;;;;5024998;28;20086;-71
2022/07/31 13:45:50;;;;;;;14.68;7.63;;;;;;;;;;5019526;28;20128;-68
2022/07/31 13:48:16;;;;;;;14.20;6.68;;;;;;;;;;5013815;28;20778;-67
2022/07/31 13:50:42;;;;;;;13.73;6.57;;;;;;;;;;4998677;28;20029;-68
2022/07/31 13:53:08;;;;;;;12.25;7.22;;;;;;;;;;5013624;28;20108;-69
2022/07/31 13:55:35;;;;;;;12.35;6.72;;;;;;;;;;5015331;28;20055;-68
2022/07/31 13:58:01;;;;;;;14.23;6.82;;;;;;;;;;5019903;28;20030;-67
2022/07/31 14:00:27;;;;;;;11.70;6.35;;;;;;;;;;5017512;28;20044;-68
2022/07/31 14:02:53;;;;;;;13.50;6.35;;;;;;;;;;5022960;28;20033;-68
2022/07/31 14:05:19;;;;;;;15.38;6.82;;;;;;;;;;5026066;28;20026;-68
2022/07/31 14:07:45;;;;;;;12.98;7.88;;;;;;;;;;5004423;28;20033;-68
2022/07/31 14:10:11;;;;;;;13.15;7.60;;;;;;;;;;5024092;28;20125;-68
2022/07/31 14:12:38;;;;;;;16.40;7.65;;;;;;;;;;5028409;28;20052;-68
2022/07/31 14:15:05;;;;;;;14.90;7.85;;;;;;;;;;5012287;28;20534;-68
2022/07/31 14:17:31;;;;;;;15.20;7.88;;;;;;;;;;5021513;28;20026;-66
2022/07/31 14:19:57;;;;;;;12.07;6.70;;;;;;;;;;5021693;28;20079;-71
2022/07/31 14:22:23;;;;;;;14.77;7.65;;;;;;;;;;5027399;28;20068;-67
2022/07/31 14:24:49;;;;;;;11.95;7.10;;;;;;;;;;5011210;28;20033;-67
2022/07/31 14:27:15;;;;;;;16.55;7.65;;;;;;;;;;5027860;28;20090;-68
2022/07/31 14:29:41;;;;;;;13.35;7.32;;;;;;;;;;5020726;28;20037;-67
2022/07/31 14:32:07;;;;;;;16.50;8.07;;;;;;;;;;5000658;28;20041;-67
2022/07/31 14:34:33;;;;;;;12.27;7.63;;;;;;;;;;5023747;28;20018;-67
2022/07/31 14:36:59;;;;;;;13.63;8.57;;;;;;;;;;5023501;28;20414;-66
2022/07/31 14:39:25;;;;;;;16.25;8.60;;;;;;;;;;5021003;28;20025;-67